Time;durP1;ratioP1;P1;durP2;ratioP2;P2;SDS_P1;SDS_P2;PMS_P1;PMS_P2;Temp;Humidity;BMP_temperature;BMP_pressure;BME280_temperature;BME280_humidity;BME280_pressure;Samples;Min_cycle;Max_cycle;Signal;HPM_P1;HPM_P2
2022/08/03 00:00:15;;;;;;;6.10;3.03;;;;;;;20.26;81.54;94754.66;6304925;22;20192;-79
2022/08/03 00:02:41;;;;;;;4.60;3.13;;;;;;;20.15;81.59;94753.13;6306660;22;20160;-78
2022/08/03 00:05:08;;;;;;;5.32;3.08;;;;;;;20.06;82.37;94754.78;6306346;22;20156;-80
2022/08/03 00:07:37;;;;;;;5.95;2.50;;;;;;;19.98;80.96;94750.88;6305606;22;20168;-80
2022/08/03 00:10:05;;;;;;;3.42;2.00;;;;;;;19.91;79.35;94739.84;6120286;23;20255;-81
2022/08/03 00:12:31;;;;;;;4.82;2.15;;;;;;;19.94;79.87;94747.19;6120068;23;20541;-80
2022/08/03 00:14:58;;;;;;;4.90;2.97;;;;;;;19.98;82.95;94750.88;6120101;23;20178;-81
2022/08/03 00:17:25;;;;;;;6.28;2.78;;;;;;;20.06;83.05;94750.28;6119952;23;20191;-79
2022/08/03 00:19:52;;;;;;;5.13;2.97;;;;;;;20.03;82.99;94744.78;6119485;23;20196;-80
2022/08/03 00:22:19;;;;;;;4.07;2.90;;;;;;;19.92;82.97;94744.06;6119552;23;20251;-80
2022/08/03 00:24:47;;;;;;;3.95;3.00;;;;;;;19.79;82.79;94752.59;6119987;23;20165;-80
2022/08/03 00:27:13;;;;;;;7.45;2.90;;;;;;;19.72;84.58;94747.59;6120599;23;20169;-80
2022/08/03 00:29:40;;;;;;;6.10;3.17;;;;;;;19.76;84.65;94751.28;6119101;23;20172;-81
2022/08/03 00:32:07;;;;;;;5.57;2.92;;;;;;;19.83;84.42;94753.59;6119020;23;20203;-81
2022/08/03 00:34:34;;;;;;;4.18;2.92;;;;;;;19.90;82.82;94754.09;6119524;23;20682;-81
2022/08/03 00:37:01;;;;;;;4.45;3.08;;;;;;;19.95;82.70;94759.34;6118487;23;20173;-79
2022/08/03 00:39:27;;;;;;;6.05;2.38;;;;;;;20.05;81.13;94746.09;6118753;23;20183;-80
2022/08/03 00:41:56;;;;;;;2.53;2.20;;;;;;;20.05;78.65;94742.66;6119035;23;20176;-81
2022/08/03 00:44:22;;;;;;;2.33;1.90;;;;;;;19.97;77.45;94749.28;6119911;23;20172;-79
2022/08/03 00:46:49;;;;;;;4.90;2.08;;;;;;;19.99;77.72;94749.03;6120458;23;20167;-79
2022/08/03 00:49:16;;;;;;;3.53;2.65;;;;;;;20.03;80.21;94742.16;6120396;23;20169;-80
2022/08/03 00:51:43;;;;;;;4.28;2.50;;;;;;;20.04;81.76;94743.72;6120620;23;20168;-79
2022/08/03 00:54:10;;;;;;;5.13;2.30;;;;;;;20.01;81.92;94747.69;6120816;22;20635;-79
2022/08/03 00:56:37;;;;;;;4.90;3.08;;;;;;;20.06;81.46;94754.78;6120707;23;20171;-79
2022/08/03 00:59:06;;;;;;;3.72;2.25;;;;;;;20.08;80.10;94742.91;6121140;23;20172;-79
2022/08/03 01:01:33;;;;;;;6.13;2.85;;;;;;;20.14;82.11;94752.38;6120721;23;20223;-80
2022/08/03 01:04:00;;;;;;;4.47;2.90;;;;;;;20.04;82.21;94736.59;6120804;23;20179;-79
2022/08/03 01:06:35;;;;;;;3.17;2.55;;;;;;;20.13;81.40;94744.72;6121675;23;20176;-80
2022/08/03 01:09:09;;;;;;;2.85;2.60;;;;;;;20.03;80.74;94748.19;6230600;22;20546;-79
2022/08/03 01:11:40;;;;;;;4.40;2.45;;;;;;;19.93;81.07;94742.22;6307791;22;20533;-79
2022/08/03 01:14:13;;;;;;;6.38;2.45;;;;;;;19.91;80.84;94741.69;6307787;22;20160;-80
2022/08/03 01:16:48;;;;;;;3.70;2.70;;;;;;;19.83;81.52;94737.78;6307236;22;20600;-82
2022/08/03 01:19:46;;;;;;;6.90;3.30;;;;;;;19.83;81.78;94738.56;6307123;22;20155;-82
2022/08/03 01:22:31;;;;;;;3.40;2.60;;;;;;;19.75;82.84;94727.78;6306974;22;20248;-81
2022/08/03 01:25:06;;;;;;;3.30;2.67;;;;;;;19.72;83.18;94729.13;6307193;22;20506;-81
2022/08/03 01:27:51;;;;;;;3.42;2.80;;;;;;;19.77;83.54;94736.22;6306960;22;20611;-80
2022/08/03 01:30:24;;;;;;;8.63;2.70;;;;;;;19.76;83.39;94732.81;6306842;22;20167;-81
2022/08/03 01:32:58;;;;;;;6.70;3.13;;;;;;;19.77;83.60;94736.22;6306872;22;20758;-81
2022/08/03 01:35:29;;;;;;;5.57;2.88;;;;;;;19.70;84.11;94746.31;6307096;22;20156;-82
2022/08/03 01:38:00;;;;;;;4.68;3.00;;;;;;;19.67;82.46;94734.44;6306905;22;20198;-82
2022/08/03 01:40:30;;;;;;;4.07;2.90;;;;;;;19.72;82.05;94733.63;6307247;22;20184;-82
2022/08/03 01:43:02;;;;;;;3.70;2.30;;;;;;;19.81;81.04;94742.53;6307265;22;20202;-81
2022/08/03 01:45:32;;;;;;;7.43;2.75;;;;;;;19.79;81.34;94737.56;6306816;22;20167;-82
2022/08/03 01:48:00;;;;;;;6.60;2.70;;;;;;;19.76;80.87;94738.09;6307183;22;20604;-81
2022/08/03 01:50:29;;;;;;;3.30;2.72;;;;;;;19.78;81.13;94743.09;6307734;22;20169;-82
2022/08/03 01:52:57;;;;;;;3.40;2.60;;;;;;;19.79;80.60;94737.56;6306952;22;20161;-82
2022/08/03 01:55:27;;;;;;;4.00;2.60;;;;;;;19.76;80.69;94738.09;6306246;22;20168;-82
2022/08/03 01:57:55;;;;;;;5.70;2.70;;;;;;;19.72;81.15;94738.91;6307241;22;20164;-82
2022/08/03 02:00:25;;;;;;;7.00;3.00;;;;;;;19.68;81.40;94746.56;6306676;22;20195;-82
2022/08/03 02:02:55;;;;;;;4.50;2.60;;;;;;;19.58;81.33;94735.28;6307098;22;20168;-82
2022/08/03 02:05:23;;;;;;;4.07;2.47;;;;;;;19.61;81.58;94747.94;6306848;22;20168;-82
2022/08/03 02:07:51;;;;;;;6.50;3.00;;;;;;;19.67;81.61;94739.72;6305952;22;20164;-81
2022/08/03 02:10:21;;;;;;;3.90;2.83;;;;;;;19.59;81.55;94742.94;6306078;22;20500;-82
2022/08/03 02:12:49;;;;;;;11.05;5.47;;;;;;;19.50;81.40;94743.75;6306506;22;20658;-81
2022/08/03 02:15:18;;;;;;;5.13;3.20;;;;;;;19.52;81.77;94739.78;6307191;22;20168;-83
2022/08/03 02:17:47;;;;;;;5.63;3.30;;;;;;;19.44;82.53;94742.19;6306821;22;20631;-82
2022/08/03 02:20:16;;;;;;;6.75;2.80;;;;;;;19.39;82.08;94740.38;6306529;22;20219;-82
2022/08/03 02:22:44;;;;;;;2.85;2.50;;;;;;;19.37;82.29;94739.03;6306806;22;20558;-81
2022/08/03 02:25:14;;;;;;;3.88;2.72;;;;;;;19.39;82.32;94742.22;6306416;22;20168;-81
2022/08/03 02:27:46;;;;;;;5.40;2.70;;;;;;;19.36;82.39;94732.19;6306451;22;20171;-81
2022/08/03 02:30:14;;;;;;;6.93;2.97;;;;;;;19.31;83.25;94738.25;6306758;22;20495;-82
2022/08/03 02:32:51;;;;;;;5.30;2.85;;;;;;;19.26;83.55;94733.81;6306498;22;20674;-81
2022/08/03 02:35:21;;;;;;;3.97;2.80;;;;;;;19.45;83.50;94741.16;6306914;22;20160;-80
2022/08/03 02:37:52;;;;;;;5.30;3.00;;;;;;;19.41;83.10;94732.19;6306553;22;20164;-80
2022/08/03 02:40:23;;;;;;;6.05;2.90;;;;;;;19.38;82.10;94735.34;6306788;22;20173;-81
2022/08/03 02:42:54;;;;;;;4.43;3.28;;;;;;;19.28;82.47;94734.31;6306457;22;20168;-80
2022/08/03 02:45:26;;;;;;;4.20;3.28;;;;;;;19.18;83.56;94723.84;6307191;22;20160;-80
2022/08/03 02:47:57;;;;;;;7.95;3.55;;;;;;;19.18;85.41;94731.75;6306709;22;20235;-82
2022/08/03 02:50:26;;;;;;;3.20;2.90;;;;;;;19.13;85.43;94726.47;6305749;22;20165;-82
2022/08/03 02:52:57;;;;;;;7.75;3.08;;;;;;;19.08;86.44;94726.50;6306542;22;20164;-81
2022/08/03 02:55:26;;;;;;;5.47;3.40;;;;;;;19.11;86.79;94728.59;6306514;22;20164;-79
2022/08/03 02:57:55;;;;;;;3.55;3.10;;;;;;;19.08;87.51;94731.75;6305706;22;20164;-79
2022/08/03 03:00:23;;;;;;;6.75;3.50;;;;;;;19.08;87.14;94728.31;6306512;22;20184;-79
2022/08/03 03:02:51;;;;;;;11.05;4.20;;;;;;;18.91;87.38;94725.22;6306178;22;20168;-79
2022/08/03 03:05:18;;;;;;;12.45;4.05;;;;;;;18.98;87.76;94737.06;6305852;22;20165;-77
2022/08/03 03:07:47;;;;;;;8.45;3.80;;;;;;;19.06;87.33;94741.78;6305477;22;20160;-78
2022/08/03 03:10:14;;;;;;;8.60;3.97;;;;;;;19.07;87.13;94746.00;6306374;22;20159;-80
2022/08/03 03:12:41;;;;;;;15.95;4.40;;;;;;;19.09;87.11;94751.78;6306431;22;20187;-80
2022/08/03 03:15:10;;;;;;;11.88;4.47;;;;;;;19.10;86.67;94747.31;6306244;22;20173;-80
2022/08/03 03:17:37;;;;;;;9.10;3.50;;;;;;;19.03;86.10;94755.50;6306105;22;20175;-80
2022/08/03 03:20:07;;;;;;;8.68;3.20;;;;;;;19.04;84.97;94762.34;6305159;22;20168;-80
2022/08/03 03:22:35;;;;;;;6.28;3.22;;;;;;;19.04;84.91;94764.97;6305638;22;20165;-80
2022/08/03 03:25:05;;;;;;;4.50;2.90;;;;;;;19.02;84.72;94767.06;6305743;22;20187;-80
2022/08/03 03:27:33;;;;;;;4.50;2.95;;;;;;;19.02;84.91;94767.06;6305170;22;20153;-82
2022/08/03 03:30:01;;;;;;;3.78;2.90;;;;;;;18.96;84.84;94754.22;6305421;22;20225;-80
2022/08/03 03:32:29;;;;;;;7.85;3.22;;;;;;;18.97;85.07;94774.19;6305512;22;20161;-81
2022/08/03 03:34:57;;;;;;;5.88;3.00;;;;;;;18.93;85.32;94768.66;6305502;22;20175;-80
2022/08/03 03:37:25;;;;;;;4.20;3.28;;;;;;;18.85;85.21;94768.44;6305488;22;20255;-80
2022/08/03 03:39:53;;;;;;;4.22;3.17;;;;;;;18.87;85.60;94775.03;6305144;22;20171;-75
2022/08/03 03:42:21;;;;;;;4.97;2.83;;;;;;;18.84;85.82;94780.84;6305112;22;20269;-75
2022/08/03 03:44:48;;;;;;;3.63;3.03;;;;;;;18.87;85.68;94782.13;6305085;22;20164;-75
2022/08/03 03:47:15;;;;;;;8.80;3.20;;;;;;;18.88;85.64;94779.22;6304613;22;20176;-75
2022/08/03 03:49:42;;;;;;;4.75;3.53;;;;;;;18.91;85.44;94781.31;6304921;22;20169;-74
2022/08/03 03:52:10;;;;;;;4.97;3.60;;;;;;;18.89;84.78;94780.81;6304282;22;20225;-75
2022/08/03 03:54:41;;;;;;;6.40;3.60;;;;;;;18.93;85.28;94781.06;6304901;22;20168;-75
2022/08/03 03:57:09;;;;;;;6.60;3.40;;;;;;;18.98;84.89;94787.13;6305239;22;20168;-75
2022/08/03 03:59:39;;;;;;;5.22;3.42;;;;;;;18.98;85.69;94784.50;6304834;22;20215;-74
2022/08/03 04:02:08;;;;;;;7.07;3.13;;;;;;;18.98;85.18;94788.97;6304478;22;20196;-75
2022/08/03 04:12:59;;;;;;;9.67;3.67;;;;;;;18.99;85.28;94777.38;6304706;22;20171;-74
2022/08/03 04:15:29;;;;;;;7.50;3.97;;;;;;;19.00;85.69;94771.84;6304341;22;20711;-74
2022/08/03 04:17:58;;;;;;;10.10;3.97;;;;;;;19.09;84.99;94780.78;6304935;22;20179;-75
2022/08/03 04:20:29;;;;;;;6.43;3.72;;;;;;;19.12;84.51;94780.25;6305418;22;20168;-75
2022/08/03 04:22:59;;;;;;;5.60;4.05;;;;;;;19.17;84.50;94782.06;6306740;22;20157;-75
2022/08/03 04:25:30;;;;;;;11.80;4.10;;;;;;;19.18;84.94;94781.81;6306546;22;20170;-75
2022/08/03 04:28:00;;;;;;;13.90;5.20;;;;;;;19.16;84.68;94781.25;6306910;22;20156;-74
2022/08/03 04:30:30;;;;;;;18.55;5.80;;;;;;;19.15;84.35;94768.38;6306883;22;20580;-74
2022/08/03 04:32:58;;;;;;;17.10;6.90;;;;;;;19.22;84.37;94782.84;6307211;22;20450;-74
2022/08/03 04:35:29;;;;;;;21.65;7.38;;;;;;;19.26;84.07;94778.63;6306269;22;20168;-76
2022/08/03 04:38:00;;;;;;;13.88;5.30;;;;;;;19.29;84.44;94779.91;6306148;22;20179;-75
2022/08/03 04:40:30;;;;;;;11.00;5.07;;;;;;;19.29;84.51;94785.19;6305495;22;20168;-75
2022/08/03 04:42:59;;;;;;;9.50;4.70;;;;;;;19.34;83.96;94779.91;6305687;22;20168;-76
2022/08/03 04:45:29;;;;;;;9.02;4.57;;;;;;;19.43;83.67;94794.13;6305707;22;20553;-74
2022/08/03 04:47:57;;;;;;;7.63;4.00;;;;;;;19.48;83.53;94790.72;6291645;22;20183;-75
2022/08/03 04:50:25;;;;;;;5.53;4.20;;;;;;;19.49;83.52;94781.72;6299928;22;20263;-75
2022/08/03 04:52:52;;;;;;;7.93;4.20;;;;;;;19.61;83.36;94798.81;6300452;22;20176;-76
2022/08/03 04:55:26;;;;;;;6.35;4.00;;;;;;;19.64;82.88;94792.22;6301475;22;20199;-76
2022/08/03 04:57:53;;;;;;;6.70;3.80;;;;;;;19.73;81.80;94806.41;6301376;22;20244;-76
2022/08/03 05:00:21;;;;;;;6.57;4.15;;;;;;;19.72;82.05;94805.63;6302086;22;20164;-75
2022/08/03 05:02:54;;;;;;;6.88;4.57;;;;;;;19.76;81.14;94809.31;6301521;22;20705;-76
2022/08/03 05:05:21;;;;;;;10.77;4.80;;;;;;;19.80;81.52;94806.91;6302010;22;20159;-76
2022/08/03 05:07:48;;;;;;;9.93;4.50;;;;;;;19.80;82.13;94812.16;6301808;22;20672;-75
2022/08/03 05:10:16;;;;;;;11.02;4.80;;;;;;;19.81;81.52;94811.13;6302568;22;20163;-75
2022/08/03 05:12:43;;;;;;;7.85;4.50;;;;;;;19.80;82.35;94801.63;6301614;22;20669;-75
2022/08/03 05:15:11;;;;;;;8.63;4.32;;;;;;;19.85;82.08;94812.16;6302061;22;20218;-75
2022/08/03 05:17:37;;;;;;;11.20;4.45;;;;;;;19.89;81.23;94817.66;6300333;22;20168;-75
2022/08/03 05:20:07;;;;;;;6.93;4.47;;;;;;;19.95;80.42;94820.03;6302084;22;20176;-75
2022/08/03 05:22:34;;;;;;;7.93;4.50;;;;;;;19.97;80.51;94827.69;6301126;22;20543;-74
2022/08/03 05:25:01;;;;;;;7.50;4.30;;;;;;;20.01;80.53;94828.69;6302901;22;20230;-75
2022/08/03 05:27:28;;;;;;;8.55;4.50;;;;;;;20.04;80.26;94834.22;6301791;22;20202;-75
2022/08/03 05:29:55;;;;;;;10.05;4.63;;;;;;;20.04;81.08;94828.16;6301964;22;20176;-76
2022/08/03 05:32:22;;;;;;;8.40;4.10;;;;;;;19.96;81.87;94826.88;6301113;22;20710;-75
2022/08/03 05:34:49;;;;;;;6.47;4.35;;;;;;;20.02;81.31;94830.28;6301354;22;20168;-75
2022/08/03 05:37:17;;;;;;;7.45;4.43;;;;;;;20.00;81.58;94835.81;6301718;22;20153;-75
2022/08/03 05:39:44;;;;;;;7.55;4.30;;;;;;;19.97;82.60;94838.25;6302220;22;20178;-76
2022/08/03 05:42:11;;;;;;;10.82;4.45;;;;;;;20.06;83.00;94842.66;6302808;22;20196;-76
2022/08/03 05:44:38;;;;;;;11.02;4.68;;;;;;;20.11;81.91;94844.50;6301161;22;20172;-75
2022/08/03 05:47:05;;;;;;;11.52;4.80;;;;;;;20.17;82.46;94844.19;6301540;22;20161;-75
2022/08/03 05:49:32;;;;;;;32.38;5.43;;;;;;;20.32;81.48;94844.13;6301900;22;20168;-75
2022/08/03 05:51:58;;;;;;;77.05;8.13;;;;;;;20.77;78.91;94845.66;6304148;22;20171;-75
2022/08/03 05:54:26;;;;;;;31.50;5.43;;;;;;;20.97;77.45;94850.00;6302248;22;20180;-79
2022/08/03 05:56:53;;;;;;;13.23;5.25;;;;;;;21.08;75.76;94843.59;6301798;22;20198;-75
2022/08/03 05:59:20;;;;;;;15.23;5.70;;;;;;;21.09;75.01;94847.03;6301562;22;20226;-75
2022/08/03 06:01:47;;;;;;;44.10;7.15;;;;;;;21.16;75.92;94842.97;6300752;22;20176;-76
2022/08/03 06:04:14;;;;;;;22.63;6.95;;;;;;;21.27;75.29;94841.81;6300188;22;20168;-76
2022/08/03 06:06:41;;;;;;;9.10;5.60;;;;;;;21.31;73.87;94847.31;6300670;22;20522;-76
2022/08/03 06:09:09;;;;;;;10.98;4.80;;;;;;;21.26;72.80;94845.53;6302582;22;20226;-76
2022/08/03 06:11:37;;;;;;;12.77;4.55;;;;;;;21.26;72.90;94847.38;6301520;22;20160;-75
2022/08/03 06:14:04;;;;;;;8.10;4.75;;;;;;;21.26;72.57;94855.31;6302912;22;20179;-76
2022/08/03 06:16:32;;;;;;;11.18;6.57;;;;;;;21.30;72.29;94846.53;6301186;22;20172;-76
2022/08/03 06:18:59;;;;;;;10.73;6.25;;;;;;;21.41;72.24;94848.00;6302111;22;20172;-76
2022/08/03 06:21:26;;;;;;;11.43;6.38;;;;;;;21.74;71.86;94840.25;6302293;22;21085;-77
2022/08/03 06:23:52;;;;;;;7.70;5.50;;;;;;;22.05;71.51;94852.84;6303404;22;20169;-80
2022/08/03 06:26:19;;;;;;;10.23;5.15;;;;;;;22.26;69.55;94849.94;6294891;22;20179;-81
2022/08/03 06:28:48;;;;;;;8.30;5.28;;;;;;;22.42;69.03;94853.97;6292615;22;20191;-80
2022/08/03 06:31:15;;;;;;;6.05;4.63;;;;;;;22.46;67.57;94847.81;6296483;22;20175;-77
2022/08/03 06:33:41;;;;;;;7.75;5.55;;;;;;;22.32;67.28;94856.75;6295553;22;20164;-77
2022/08/03 06:36:08;;;;;;;8.75;4.80;;;;;;;22.16;68.19;94847.44;6297290;22;20179;-77
2022/08/03 06:38:35;;;;;;;8.77;5.32;;;;;;;22.11;68.24;94848.28;6297090;22;20168;-79
2022/08/03 06:41:02;;;;;;;9.13;5.53;;;;;;;22.12;67.77;94833.97;6297779;22;20168;-78
2022/08/03 06:43:29;;;;;;;12.20;5.60;;;;;;;22.37;67.95;94849.50;6295255;22;20188;-78
2022/08/03 06:45:57;;;;;;;8.88;5.00;;;;;;;22.27;67.45;94844.38;6296624;22;20172;-78
2022/08/03 06:48:26;;;;;;;8.55;5.30;;;;;;;22.30;67.64;94841.16;6296979;22;20599;-79
2022/08/03 06:50:53;;;;;;;5.93;4.25;;;;;;;22.44;67.88;94843.88;6298427;22;20521;-77
2022/08/03 06:53:20;;;;;;;10.55;4.82;;;;;;;22.54;66.91;94841.06;6296974;22;20251;-78
2022/08/03 06:55:47;;;;;;;10.20;4.97;;;;;;;22.63;66.61;94845.44;6296739;22;20172;-77
2022/08/03 06:58:14;;;;;;;7.18;4.15;;;;;;;22.70;66.48;94845.09;6296049;22;20172;-78
2022/08/03 07:00:41;;;;;;;9.07;4.35;;;;;;;22.82;66.08;94847.31;6296172;22;20172;-78
2022/08/03 07:03:12;;;;;;;8.43;5.20;;;;;;;22.98;65.50;94843.31;6297325;22;20726;-78
2022/08/03 07:05:40;;;;;;;11.52;4.90;;;;;;;23.00;65.42;94841.94;6295121;22;20216;-78
2022/08/03 07:08:07;;;;;;;6.90;3.88;;;;;;;22.94;65.64;94840.44;6296811;22;20202;-76
2022/08/03 07:10:48;;;;;;;11.00;3.90;;;;;;;22.98;65.63;94838.81;6295845;22;21112;-78
2022/08/03 07:13:15;;;;;;;9.80;4.32;;;;;;;23.04;64.66;94845.59;6295326;22;20235;-76
2022/08/03 07:15:42;;;;;;;7.65;4.63;;;;;;;23.29;64.32;94841.72;6293769;22;20165;-77
2022/08/03 07:18:08;;;;;;;6.10;3.92;;;;;;;23.48;63.73;94839.81;6294686;22;20168;-77
2022/08/03 07:20:37;;;;;;;9.65;4.50;;;;;;;23.43;63.61;94842.56;6298005;22;20226;-78
2022/08/03 07:23:03;;;;;;;8.88;4.57;;;;;;;23.35;63.01;94845.84;6298647;22;20747;-83
2022/08/03 07:25:30;;;;;;;5.22;4.30;;;;;;;23.23;63.76;94845.56;6299924;22;20168;-80
2022/08/03 07:27:57;;;;;;;7.32;4.80;;;;;;;23.18;65.57;94848.28;6301385;22;20175;-82
2022/08/03 07:30:24;;;;;;;9.57;4.82;;;;;;;23.23;65.88;94845.56;6278758;22;20182;-81
2022/08/03 07:32:51;;;;;;;9.38;4.72;;;;;;;23.31;66.71;94847.53;6302722;22;20160;-81
2022/08/03 07:35:18;;;;;;;11.70;6.13;;;;;;;23.40;64.70;94842.38;6305729;22;20168;-81
2022/08/03 07:37:46;;;;;;;8.25;4.35;;;;;;;23.50;64.15;94847.47;6306495;22;20187;-82
2022/08/03 07:40:13;;;;;;;8.65;4.05;;;;;;;23.51;62.28;94849.84;6310256;22;20175;-82
2022/08/03 07:42:40;;;;;;;6.97;4.40;;;;;;;23.54;62.96;94851.91;6304810;22;20196;-82
2022/08/03 07:45:08;;;;;;;7.40;4.38;;;;;;;23.53;62.16;94852.19;6302316;22;20195;-83
2022/08/03 07:47:35;;;;;;;8.07;4.10;;;;;;;23.57;60.51;94847.88;6300400;22;20183;-84
2022/08/03 07:50:02;;;;;;;5.28;3.78;;;;;;;23.56;60.66;94851.59;6301699;22;20172;-83
2022/08/03 07:55:15;;;;;;;14.15;5.30;;;;;;;23.97;61.31;94851.63;6302429;22;20155;-83
2022/08/03 07:57:42;;;;;;;10.07;4.43;;;;;;;24.26;60.40;94850.22;6301635;22;20176;-83
2022/08/03 08:00:15;;;;;;;6.88;3.67;;;;;;;24.46;59.25;94848.22;6301778;22;20191;-82
2022/08/03 08:02:43;;;;;;;5.97;3.58;;;;;;;24.56;58.19;94858.63;6301220;22;20670;-82
2022/08/03 08:05:11;;;;;;;6.68;4.22;;;;;;;24.60;58.55;94859.59;6301941;22;20156;-83
2022/08/03 08:07:38;;;;;;;5.70;3.85;;;;;;;24.56;56.36;94858.63;6300385;22;20241;-82
2022/08/03 08:10:07;;;;;;;7.53;4.50;;;;;;;24.58;56.92;94859.09;6301468;22;20176;-83
2022/08/03 08:12:36;;;;;;;5.43;4.00;;;;;;;24.62;56.39;94863.50;6302155;22;20184;-81
2022/08/03 08:15:03;;;;;;;5.68;3.35;;;;;;;24.69;55.26;94860.44;6298810;22;20504;-78
2022/08/03 08:17:30;;;;;;;6.38;3.88;;;;;;;24.72;54.90;94865.16;6295767;22;20172;-81
2022/08/03 08:19:57;;;;;;;11.27;3.28;;;;;;;24.69;51.66;94863.91;6297738;22;20172;-80
2022/08/03 08:22:24;;;;;;;3.40;2.58;;;;;;;24.61;51.44;94866.47;6300012;22;20575;-79
2022/08/03 08:24:51;;;;;;;4.45;2.95;;;;;;;24.60;52.37;94862.25;6297976;22;20654;-80
2022/08/03 08:27:18;;;;;;;6.68;3.15;;;;;;;24.67;53.97;94859.97;6297757;22;20168;-80
2022/08/03 08:29:46;;;;;;;4.47;3.25;;;;;;;24.88;54.23;94857.66;6297421;22;20168;-83
2022/08/03 08:32:14;;;;;;;5.43;3.88;;;;;;;25.10;54.26;94858.44;6299728;22;20164;-83
2022/08/03 08:34:42;;;;;;;5.50;3.20;;;;;;;25.21;52.52;94864.28;6298784;22;20233;-83
2022/08/03 08:37:09;;;;;;;3.78;2.85;;;;;;;25.22;52.86;94858.63;6299466;22;20924;-83
2022/08/03 08:39:35;;;;;;;7.03;3.15;;;;;;;25.25;53.03;94852.72;6299006;22;20176;-83
2022/08/03 08:42:03;;;;;;;7.95;3.80;;;;;;;25.42;53.47;94852.81;6298825;22;20172;-83
2022/08/03 08:44:30;;;;;;;3.88;3.20;;;;;;;25.58;52.08;94853.22;6300271;22;20160;-83
2022/08/03 08:47:02;;;;;;;4.35;2.95;;;;;;;25.72;50.57;94848.59;6295726;22;20172;-78
2022/08/03 08:49:29;;;;;;;5.47;2.80;;;;;;;25.81;49.17;94852.06;6295508;22;20157;-80
2022/08/03 08:51:58;;;;;;;3.70;2.80;;;;;;;25.87;48.34;94850.06;6295302;22;20879;-83
2022/08/03 08:54:27;;;;;;;3.83;2.65;;;;;;;25.91;49.38;94841.16;6294838;22;20687;-76
2022/08/03 08:56:58;;;;;;;3.10;2.80;;;;;;;26.04;49.70;94843.97;6295084;22;20229;-76
2022/08/03 08:59:25;;;;;;;4.95;2.95;;;;;;;26.12;49.18;94829.91;6294174;22;20210;-76
2022/08/03 09:01:58;;;;;;;7.22;3.15;;;;;;;26.19;48.14;94835.59;6292892;22;20175;-77
2022/08/03 09:04:25;;;;;;;5.53;2.47;;;;;;;26.08;48.61;94834.28;6293896;22;20160;-77
2022/08/03 09:06:52;;;;;;;4.00;3.00;;;;;;;26.13;49.27;94831.47;6295518;22;20517;-77
2022/08/03 09:09:19;;;;;;;6.55;3.85;;;;;;;26.30;49.65;94831.50;6294915;22;20196;-77
2022/08/03 09:11:48;;;;;;;4.93;3.10;;;;;;;26.54;48.65;94837.19;6295571;22;20175;-78
2022/08/03 09:14:15;;;;;;;8.50;2.78;;;;;;;26.73;47.78;94834.19;6296069;22;20631;-77
2022/08/03 09:16:58;;;;;;;3.70;3.00;;;;;;;26.89;47.94;94833.44;6296887;22;20176;-79
2022/08/03 09:19:26;;;;;;;5.32;3.20;;;;;;;26.90;48.24;94835.00;6295757;22;20217;-77
2022/08/03 09:22:08;;;;;;;3.05;2.72;;;;;;;26.86;46.71;94838.63;6296751;22;20172;-77
2022/08/03 09:24:35;;;;;;;3.03;2.67;;;;;;;26.81;46.04;94833.47;6296381;22;20164;-79
2022/08/03 09:27:02;;;;;;;4.72;2.83;;;;;;;26.88;46.43;94837.22;6297413;22;20539;-77
2022/08/03 09:29:32;;;;;;;5.60;3.10;;;;;;;27.03;47.00;94831.38;6294533;22;20202;-77
2022/08/03 09:32:01;;;;;;;8.18;3.30;;;;;;;27.11;46.56;94837.81;6297019;22;20160;-77
2022/08/03 09:34:30;;;;;;;4.70;2.83;;;;;;;27.22;45.37;94823.00;6295022;22;20535;-77
2022/08/03 09:36:57;;;;;;;5.97;2.83;;;;;;;27.34;45.43;94830.38;6296016;22;20515;-77
2022/08/03 09:39:26;;;;;;;4.22;2.40;;;;;;;27.41;43.64;94842.16;6296998;22;20170;-80
2022/08/03 09:42:05;;;;;;;3.63;2.38;;;;;;;27.44;44.13;94835.41;6296377;22;20208;-77
2022/08/03 09:44:35;;;;;;;4.28;2.50;;;;;;;27.37;43.11;94832.41;6297107;22;20218;-76
2022/08/03 09:47:02;;;;;;;4.90;2.50;;;;;;;27.37;43.24;94833.19;6297618;22;20196;-77
2022/08/03 09:49:30;;;;;;;4.68;2.70;;;;;;;27.47;43.55;94829.44;6294889;22;20183;-78
2022/08/03 09:52:00;;;;;;;5.47;3.67;;;;;;;27.81;44.96;94839.19;6296710;22;20176;-77
2022/08/03 09:54:28;;;;;;;2.47;2.28;;;;;;;28.02;43.90;94829.34;6295969;22;20165;-76
2022/08/03 09:56:55;;;;;;;3.75;2.60;;;;;;;28.08;42.92;94834.19;6296910;22;20164;-76
2022/08/03 09:59:26;;;;;;;4.80;2.47;;;;;;;28.20;42.37;94824.72;6294940;22;20175;-77
2022/08/03 10:01:54;;;;;;;3.92;2.55;;;;;;;28.24;43.45;94830.94;6294838;22;20197;-77
2022/08/03 10:04:21;;;;;;;4.82;2.92;;;;;;;28.38;43.14;94831.47;6295849;22;20192;-77
2022/08/03 10:07:04;;;;;;;3.95;2.55;;;;;;;28.62;43.15;94828.97;6297536;22;20168;-78
2022/08/03 10:09:31;;;;;;;5.15;2.63;;;;;;;28.85;42.91;94814.16;6295236;22;20214;-77
2022/08/03 10:12:07;;;;;;;3.10;2.67;;;;;;;29.02;41.89;94818.56;6299256;22;20223;-77
2022/08/03 10:14:36;;;;;;;9.27;3.22;;;;;;;29.14;41.35;94813.25;6296658;22;20599;-76
2022/08/03 10:17:03;;;;;;;4.80;2.80;;;;;;;29.25;40.82;94817.88;6296861;22;20243;-77
2022/08/03 10:19:30;;;;;;;3.95;2.90;;;;;;;29.35;41.30;94822.00;6294099;22;20247;-77
2022/08/03 10:22:03;;;;;;;3.63;2.70;;;;;;;29.53;40.64;94818.03;6295675;22;20176;-77
2022/08/03 10:24:34;;;;;;;3.70;3.17;;;;;;;29.62;39.85;94820.59;6296215;22;20180;-76
2022/08/03 10:27:04;;;;;;;3.05;2.70;;;;;;;29.85;40.68;94815.63;6296756;22;20591;-77
2022/08/03 10:29:34;;;;;;;5.72;2.60;;;;;;;29.97;40.42;94807.56;6294348;22;20867;-77
2022/08/03 10:32:07;;;;;;;5.10;3.20;;;;;;;30.08;39.77;94809.47;6296980;22;20163;-76
2022/08/03 10:34:36;;;;;;;4.50;2.97;;;;;;;30.06;40.16;94798.31;6296889;22;20183;-76
2022/08/03 10:37:10;;;;;;;4.32;2.95;;;;;;;29.99;39.83;94814.16;6293884;22;20160;-76
2022/08/03 10:39:37;;;;;;;4.88;2.70;;;;;;;29.93;39.56;94809.38;6298198;22;20510;-77
2022/08/03 10:42:05;;;;;;;6.00;2.90;;;;;;;29.83;40.01;94807.13;6298730;22;20646;-77
2022/08/03 10:44:37;;;;;;;2.97;2.67;;;;;;;29.80;39.88;94803.19;6298919;22;20534;-76
2022/08/03 10:47:04;;;;;;;7.22;3.00;;;;;;;29.77;40.50;94809.22;6300123;22;20186;-77
2022/08/03 10:49:32;;;;;;;3.10;2.80;;;;;;;29.92;40.12;94810.50;6298290;22;20168;-77
2022/08/03 10:51:59;;;;;;;6.88;2.80;;;;;;;30.22;39.78;94811.78;6299497;22;20546;-77
2022/08/03 10:57:48;;;;;;;6.40;2.97;;;;;;;30.46;38.53;94811.78;6299162;22;20162;-78
2022/08/03 11:00:15;;;;;;;3.58;2.53;;;;;;;30.59;37.84;94810.63;6299894;22;20167;-77
2022/08/03 11:03:05;;;;;;;4.18;2.45;;;;;;;30.55;37.74;94803.59;6299641;22;20169;-77
2022/08/03 11:05:33;;;;;;;3.03;2.40;;;;;;;30.79;37.73;94804.28;6297822;22;20169;-77
2022/08/03 11:08:24;;;;;;;4.72;2.58;;;;;;;30.98;37.33;94800.22;6297237;22;20230;-76
2022/08/03 11:10:54;;;;;;;3.28;2.40;;;;;;;31.04;36.79;94794.25;6299312;22;20164;-77
2022/08/03 11:13:24;;;;;;;3.30;2.47;;;;;;;30.96;36.82;94797.09;6299308;22;20163;-79
2022/08/03 11:15:53;;;;;;;6.25;2.63;;;;;;;30.97;36.97;94796.75;6297995;22;20924;-78
2022/08/03 11:18:21;;;;;;;3.60;2.25;;;;;;;31.05;37.23;94793.16;6299133;22;20475;-76
2022/08/03 11:20:50;;;;;;;5.53;2.67;;;;;;;31.18;36.77;94786.56;6298187;22;20180;-77
2022/08/03 11:23:18;;;;;;;4.55;2.80;;;;;;;31.38;36.63;94779.38;6299406;22;20274;-77
2022/08/03 11:26:12;;;;;;;3.05;2.42;;;;;;;31.50;36.46;94784.72;6298828;22;20168;-77
2022/08/03 11:28:40;;;;;;;8.15;2.85;;;;;;;31.25;36.24;94748.34;6298945;22;20619;-76
2022/08/03 11:31:45;;;;;;;2.85;2.60;;;;;;;31.60;36.23;94783.41;6299057;22;20172;-76
2022/08/03 11:34:14;;;;;;;5.50;2.60;;;;;;;31.59;35.63;94782.63;6299058;22;20160;-75
2022/08/03 11:37:18;;;;;;;2.97;2.40;;;;;;;31.45;35.00;94782.25;6297703;22;20203;-75
2022/08/03 11:39:47;;;;;;;2.53;2.33;;;;;;;31.50;35.57;94779.34;6297650;22;20171;-77
2022/08/03 11:42:46;;;;;;;5.07;2.30;;;;;;;31.61;36.68;94771.53;6299500;22;20171;-80
2022/08/03 11:45:14;;;;;;;4.68;2.42;;;;;;;31.82;36.12;94774.72;6299556;22;20172;-81
2022/08/03 11:47:42;;;;;;;6.10;2.78;;;;;;;32.01;35.64;94777.47;6298589;22;20160;-77
2022/08/03 11:50:10;;;;;;;5.60;2.70;;;;;;;31.62;35.89;94779.25;6299138;22;20178;-77
2022/08/03 11:52:40;;;;;;;2.92;2.63;;;;;;;31.45;36.32;94774.19;6299358;22;20183;-77
2022/08/03 11:55:12;;;;;;;11.52;2.67;;;;;;;31.51;35.70;94775.53;6299482;22;20172;-77